Time;durP1;ratioP1;P1;durP2;ratioP2;P2;SDS_P1;SDS_P2;PMS_P1;PMS_P2;Temp;Humidity;BMP_temperature;BMP_pressure;BME280_temperature;BME280_humidity;BME280_pressure;Samples;Min_cycle;Max_cycle;Signal;HPM_P1;HPM_P2
2023/12/21 00:01:11;;;;;;;14.48;3.97;;;10.20;92.10;;;;;;9176921;19;20018;-72
2023/12/21 00:04:19;;;;;;;24.58;3.40;;;10.20;92.10;;;;;;9171175;19;20483;-72
2023/12/21 00:07:27;;;;;;;11.77;3.08;;;10.20;92.10;;;;;;9174546;19;20021;-72
2023/12/21 00:10:35;;;;;;;13.77;3.70;;;10.20;92.10;;;;;;9176752;19;20014;-73
2023/12/21 00:13:42;;;;;;;10.73;3.05;;;10.20;92.10;;;;;;9176462;19;20027;-72
2023/12/21 00:16:52;;;;;;;17.75;2.95;;;10.20;92.10;;;;;;9174481;19;20022;-72
2023/12/21 00:19:58;;;;;;;15.18;3.78;;;10.20;92.10;;;;;;9176963;19;20594;-71
2023/12/21 00:23:08;;;;;;;17.50;3.55;;;10.20;92.10;;;;;;9177078;19;20007;-72
2023/12/21 00:26:13;;;;;;;15.38;3.33;;;10.20;92.10;;;;;;9174878;19;20364;-71
2023/12/21 00:29:21;;;;;;;13.65;3.55;;;10.20;92.10;;;;;;9176383;19;20023;-71
2023/12/21 00:32:26;;;;;;;10.63;3.10;;;10.30;92.10;;;;;;9175591;19;20018;-71
2023/12/21 00:35:34;;;;;;;15.40;3.65;;;10.30;92.10;;;;;;9176296;19;20010;-72
2023/12/21 00:38:43;;;;;;;15.13;4.22;;;10.30;92.10;;;;;;9176849;19;20018;-72
2023/12/21 00:41:50;;;;;;;16.67;4.53;;;10.30;92.10;;;;;;9176988;19;20496;-71
2023/12/21 00:44:56;;;;;;;17.63;3.45;;;10.30;92.20;;;;;;9173347;19;20019;-72
2023/12/21 00:48:03;;;;;;;24.17;4.15;;;10.40;92.20;;;;;;9175660;19;20021;-72
2023/12/21 00:51:09;;;;;;;14.10;3.75;;;10.30;92.40;;;;;;9174231;19;20513;-72
2023/12/21 00:54:19;;;;;;;13.57;3.45;;;10.30;92.10;;;;;;9175786;19;20022;-72
2023/12/21 00:57:25;;;;;;;10.05;3.20;;;10.30;92.10;;;;;;9176185;19;20018;-73
2023/12/21 01:00:32;;;;;;;19.55;4.40;;;10.30;92.10;;;;;;9175302;19;20007;-72
2023/12/21 01:03:38;;;;;;;10.00;3.60;;;10.30;92.10;;;;;;9171819;19;20021;-72
2023/12/21 01:06:46;;;;;;;20.42;5.15;;;10.30;92.10;;;;;;9174012;19;20430;-71
2023/12/21 01:09:54;;;;;;;11.38;3.47;;;10.30;92.10;;;;;;9175012;19;20029;-73
2023/12/21 01:13:02;;;;;;;19.42;4.80;;;10.30;92.10;;;;;;9184669;19;20014;-71
2023/12/21 01:16:09;;;;;;;16.90;3.58;;;10.30;92.10;;;;;;9182462;19;20019;-73
2023/12/21 01:19:17;;;;;;;17.13;4.15;;;10.30;92.10;;;;;;9182617;19;20021;-72
2023/12/21 01:22:23;;;;;;;9.45;3.90;;;10.30;92.10;;;;;;9182346;19;20548;-71
2023/12/21 01:25:33;;;;;;;11.65;3.33;;;10.30;92.10;;;;;;9181891;19;20014;-71
2023/12/21 01:28:39;;;;;;;14.25;3.47;;;10.30;92.10;;;;;;9183749;19;20048;-71
2023/12/21 01:31:46;;;;;;;17.05;4.68;;;10.30;92.00;;;;;;9182950;19;20018;-71
2023/12/21 01:34:52;;;;;;;13.57;3.42;;;10.30;92.10;;;;;;9183217;19;20015;-71
2023/12/21 01:38:00;;;;;;;14.63;3.65;;;10.30;92.10;;;;;;9183780;19;20027;-70
2023/12/21 01:41:08;;;;;;;23.88;4.57;;;10.40;92.10;;;;;;9182494;19;20732;-72
2023/12/21 01:44:16;;;;;;;15.85;3.90;;;10.30;92.10;;;;;;9182626;19;20030;-70
2023/12/21 01:47:21;;;;;;;14.07;3.58;;;10.30;92.00;;;;;;9182828;19;20062;-71
2023/12/21 01:50:29;;;;;;;20.55;3.85;;;10.30;92.00;;;;;;9182001;19;20488;-70
2023/12/21 01:53:36;;;;;;;14.05;3.80;;;10.30;92.10;;;;;;9182836;19;20015;-71
2023/12/21 01:56:49;;;;;;;10.55;3.63;;;10.30;92.10;;;;;;9181015;19;20038;-71
2023/12/21 01:59:58;;;;;;;14.48;3.95;;;10.30;92.10;;;;;;9182172;19;20015;-72
2023/12/21 02:03:07;;;;;;;11.65;4.00;;;10.30;92.10;;;;;;9178198;19;20026;-75
2023/12/21 02:06:15;;;;;;;19.95;4.60;;;10.30;92.10;;;;;;9177526;19;20383;-71
2023/12/21 02:09:23;;;;;;;14.50;4.20;;;10.30;92.10;;;;;;9181996;19;20338;-73
2023/12/21 02:12:31;;;;;;;18.33;3.80;;;10.40;92.10;;;;;;9181863;19;20594;-73
2023/12/21 02:15:39;;;;;;;13.65;4.30;;;10.30;92.10;;;;;;9180092;19;20060;-75
2023/12/21 02:18:47;;;;;;;15.07;3.85;;;10.30;92.10;;;;;;9182062;19;20010;-74
2023/12/21 02:21:59;;;;;;;23.55;3.97;;;10.30;92.10;;;;;;9179237;19;20712;-76
2023/12/21 02:25:10;;;;;;;18.58;4.78;;;10.30;92.10;;;;;;9180928;19;20052;-76
2023/12/21 02:28:18;;;;;;;15.95;5.10;;;10.30;92.10;;;;;;9182361;19;20492;-76
2023/12/21 02:31:24;;;;;;;14.00;3.70;;;10.30;92.10;;;;;;9181064;19;20860;-76
2023/12/21 02:34:31;;;;;;;14.05;4.13;;;10.30;92.10;;;;;;9179879;19;20019;-78
2023/12/21 02:37:37;;;;;;;13.32;3.85;;;10.30;92.10;;;;;;9180872;19;20018;-76
2023/12/21 02:40:48;;;;;;;11.25;3.80;;;10.30;92.10;;;;;;9180066;19;20007;-77
2023/12/21 02:43:58;;;;;;;9.52;3.22;;;10.40;92.10;;;;;;9179238;19;20014;-76
2023/12/21 02:47:06;;;;;;;18.52;4.10;;;10.40;92.10;;;;;;9177608;19;20060;-74
2023/12/21 02:50:12;;;;;;;19.33;3.53;;;10.30;92.10;;;;;;9181049;19;20500;-76
2023/12/21 02:53:20;;;;;;;13.27;3.33;;;10.40;92.10;;;;;;9178816;19;20591;-77
2023/12/21 02:56:28;;;;;;;10.18;2.92;;;10.30;92.10;;;;;;9180747;19;20017;-76
2023/12/21 02:59:36;;;;;;;11.57;3.50;;;10.30;92.10;;;;;;9179162;19;20017;-77
2023/12/21 03:02:44;;;;;;;6.05;3.17;;;10.40;92.10;;;;;;9173361;19;20014;-77
2023/12/21 03:05:52;;;;;;;11.98;3.50;;;10.30;92.10;;;;;;9178135;19;20016;-75
2023/12/21 03:08:58;;;;;;;12.95;2.83;;;10.30;92.10;;;;;;9179820;19;20015;-77
2023/12/21 03:12:09;;;;;;;9.90;2.90;;;10.30;92.10;;;;;;9177414;19;20379;-76
2023/12/21 03:15:14;;;;;;;8.23;3.38;;;10.30;92.10;;;;;;9177779;19;20014;-78
2023/12/21 03:18:22;;;;;;;6.30;3.58;;;10.30;92.10;;;;;;9179012;19;20033;-77
2023/12/21 03:21:27;;;;;;;7.75;3.53;;;10.30;92.20;;;;;;9179888;19;20023;-75
2023/12/21 03:24:35;;;;;;;7.07;3.45;;;10.30;92.20;;;;;;9180071;19;20014;-75
2023/12/21 03:27:43;;;;;;;9.93;3.47;;;10.30;92.20;;;;;;9176081;19;20019;-73
2023/12/21 03:30:51;;;;;;;7.72;3.67;;;10.30;92.20;;;;;;9179139;19;20460;-70
2023/12/21 03:33:57;;;;;;;9.77;3.90;;;10.40;92.20;;;;;;9177134;19;20018;-72
2023/12/21 03:37:06;;;;;;;9.30;4.07;;;10.30;92.20;;;;;;9178053;19;20015;-70
2023/12/21 03:40:13;;;;;;;9.15;3.20;;;10.30;92.20;;;;;;9177632;19;20036;-71
2023/12/21 03:43:23;;;;;;;18.23;3.85;;;10.30;92.20;;;;;;9177653;19;20341;-71
2023/12/21 03:46:30;;;;;;;6.28;3.30;;;10.30;92.20;;;;;;9176659;19;20022;-72
2023/12/21 03:49:38;;;;;;;10.02;3.28;;;10.30;92.20;;;;;;9177079;19;20022;-70
2023/12/21 03:52:44;;;;;;;9.43;3.72;;;10.30;92.20;;;;;;9176054;19;20018;-71
2023/12/21 03:55:52;;;;;;;8.18;4.22;;;10.30;92.20;;;;;;9175554;19;20019;-71
2023/12/21 03:59:00;;;;;;;6.65;3.80;;;10.30;92.20;;;;;;9175218;19;20102;-73
2023/12/21 04:02:08;;;;;;;8.75;3.65;;;10.30;92.20;;;;;;9174025;19;20018;-72
2023/12/21 04:05:13;;;;;;;9.55;3.70;;;10.30;92.20;;;;;;9177561;19;20508;-72
2023/12/21 04:08:22;;;;;;;6.72;3.15;;;10.30;92.20;;;;;;9175205;19;20791;-72
2023/12/21 04:11:28;;;;;;;7.40;3.30;;;10.30;92.20;;;;;;9176074;19;20010;-72
2023/12/21 04:14:38;;;;;;;6.13;3.35;;;10.30;92.20;;;;;;9177193;19;20011;-70
2023/12/21 04:17:44;;;;;;;10.50;3.47;;;10.30;92.20;;;;;;9176876;19;20026;-70
2023/12/21 04:20:52;;;;;;;6.40;3.05;;;10.20;92.10;;;;;;9177203;19;20022;-71
2023/12/21 04:23:57;;;;;;;8.73;3.17;;;10.30;92.20;;;;;;9177580;19;20015;-71
2023/12/21 04:27:06;;;;;;;7.57;3.70;;;10.30;92.20;;;;;;9173947;19;20015;-71
2023/12/21 04:30:15;;;;;;;6.93;3.80;;;10.20;92.20;;;;;;9176784;19;20011;-70
2023/12/21 04:33:23;;;;;;;12.75;3.60;;;10.20;92.20;;;;;;9175710;19;20025;-75
2023/12/21 04:36:30;;;;;;;11.25;4.15;;;10.30;92.20;;;;;;9176029;19;20873;-73
2023/12/21 04:39:38;;;;;;;9.05;3.97;;;10.20;92.20;;;;;;9172474;19;20011;-74
2023/12/21 04:42:44;;;;;;;9.40;3.55;;;10.20;92.20;;;;;;9176090;19;20040;-73
2023/12/21 04:45:55;;;;;;;10.15;3.60;;;10.20;92.50;;;;;;9174280;19;20018;-74
2023/12/21 04:49:01;;;;;;;11.18;3.67;;;10.20;92.20;;;;;;9172397;19;20024;-75
2023/12/21 04:52:09;;;;;;;7.05;3.60;;;10.20;92.20;;;;;;9174613;19;20018;-74
2023/12/21 04:55:15;;;;;;;11.43;3.70;;;10.30;92.20;;;;;;9172425;19;20023;-74
2023/12/21 04:58:23;;;;;;;9.82;4.40;;;10.20;92.20;;;;;;9175484;19;20029;-74
2023/12/21 05:01:31;;;;;;;15.18;3.67;;;10.20;92.20;;;;;;9173654;19;20025;-75
2023/12/21 05:04:39;;;;;;;6.93;3.42;;;10.20;92.20;;;;;;9169516;19;20014;-75
2023/12/21 05:07:45;;;;;;;11.55;4.03;;;10.20;92.30;;;;;;9173587;19;20011;-74
2023/12/21 05:10:53;;;;;;;12.10;4.20;;;10.30;92.30;;;;;;9172856;19;20019;-74
2023/12/21 05:13:58;;;;;;;14.77;4.35;;;10.20;92.30;;;;;;9174896;19;20023;-74
2023/12/21 05:17:09;;;;;;;12.20;3.85;;;10.20;92.20;;;;;;9175567;19;20025;-74
2023/12/21 05:20:15;;;;;;;12.38;3.95;;;10.20;92.30;;;;;;9174120;19;20017;-73
2023/12/21 05:23:22;;;;;;;8.15;3.38;;;10.20;92.30;;;;;;9174886;19;20111;-74
2023/12/21 05:26:28;;;;;;;11.38;3.83;;;10.20;92.30;;;;;;9175155;19;20018;-74
2023/12/21 05:29:35;;;;;;;10.63;3.40;;;10.20;92.30;;;;;;9174499;19;20018;-74
2023/12/21 05:32:43;;;;;;;12.25;3.90;;;10.20;92.30;;;;;;9174885;19;20048;-74
2023/12/21 05:35:52;;;;;;;10.57;3.15;;;10.30;92.30;;;;;;9172451;19;20078;-74
2023/12/21 05:38:57;;;;;;;8.32;3.08;;;10.20;92.30;;;;;;9174019;19;20027;-74
2023/12/21 05:42:06;;;;;;;9.25;3.28;;;10.20;92.30;;;;;;9173864;19;20025;-74
2023/12/21 05:45:31;;;;;;;11.15;2.75;;;10.20;92.30;;;;;;9174748;19;20014;-75
2023/12/21 05:48:41;;;;;;;11.02;3.10;;;10.20;92.30;;;;;;9171587;19;20018;-74
2023/12/21 05:51:48;;;;;;;9.68;3.20;;;10.20;92.30;;;;;;9172002;19;20472;-73
2023/12/21 05:54:55;;;;;;;10.38;3.00;;;10.30;92.40;;;;;;9174833;19;20034;-74
2023/12/21 05:58:01;;;;;;;10.18;3.00;;;10.30;92.30;;;;;;9180212;19;20662;-74
2023/12/21 06:01:09;;;;;;;11.38;3.15;;;10.30;92.30;;;;;;9181174;19;20026;-75
2023/12/21 06:04:18;;;;;;;6.90;3.00;;;10.30;92.30;;;;;;9177247;19;20565;-74
2023/12/21 06:07:28;;;;;;;16.27;3.28;;;10.30;92.30;;;;;;9177919;19;20025;-75
2023/12/21 06:10:33;;;;;;;10.90;3.17;;;10.30;92.30;;;;;;9181435;19;20091;-75
2023/12/21 06:13:41;;;;;;;9.77;3.42;;;10.30;92.30;;;;;;9179310;19;20026;-75
2023/12/21 06:16:47;;;;;;;11.52;4.43;;;10.30;92.30;;;;;;9180793;19;20464;-75
2023/12/21 06:19:57;;;;;;;39.58;16.00;;;10.30;92.30;;;;;;9178430;19;20014;-75
2023/12/21 06:23:03;;;;;;;12.43;3.17;;;10.30;92.30;;;;;;9181398;19;20763;-77
2023/12/21 06:26:10;;;;;;;8.32;2.90;;;10.30;92.30;;;;;;9178874;19;20019;-75
2023/12/21 06:29:16;;;;;;;11.10;2.92;;;10.30;92.60;;;;;;9180174;19;20031;-75
2023/12/21 06:32:24;;;;;;;10.90;2.58;;;10.40;92.40;;;;;;9181609;19;20021;-75
2023/12/21 06:35:32;;;;;;;14.45;2.65;;;10.30;92.30;;;;;;9179976;19;20490;-75
2023/12/21 06:38:40;;;;;;;8.85;2.97;;;10.30;92.40;;;;;;9180122;19;20014;-75
2023/12/21 06:41:51;;;;;;;14.25;3.03;;;10.30;92.40;;;;;;9179844;19;20471;-74
2023/12/21 06:45:03;;;;;;;6.28;2.15;;;10.30;92.40;;;;;;9179728;19;20074;-77
2023/12/21 06:48:09;;;;;;;5.97;1.90;;;10.30;92.40;;;;;;9179171;19;20094;-75
2023/12/21 06:51:20;;;;;;;9.32;2.30;;;10.30;92.40;;;;;;9180301;19;20046;-75
2023/12/21 06:54:25;;;;;;;7.40;2.10;;;10.30;92.40;;;;;;9178848;19;20022;-75
2023/12/21 06:57:33;;;;;;;7.32;1.98;;;10.30;92.40;;;;;;9177166;19;20011;-73
2023/12/21 07:00:38;;;;;;;9.48;2.20;;;10.30;92.40;;;;;;9179019;19;20019;-71
2023/12/21 07:03:47;;;;;;;7.43;1.60;;;10.30;92.40;;;;;;9174286;19;20029;-72
2023/12/21 07:06:56;;;;;;;9.88;1.85;;;10.30;92.50;;;;;;9176321;19;20044;-72
2023/12/21 07:10:03;;;;;;;5.80;2.05;;;10.40;92.60;;;;;;9174490;19;20498;-73
2023/12/21 07:13:09;;;;;;;3.22;1.52;;;10.40;92.50;;;;;;9178907;19;20464;-73
2023/12/21 07:16:17;;;;;;;12.80;2.95;;;10.40;92.50;;;;;;9175058;19;20026;-72
2023/12/21 07:19:22;;;;;;;9.82;2.13;;;10.40;92.50;;;;;;9177496;19;20029;-73
2023/12/21 07:22:35;;;;;;;11.20;1.67;;;10.50;92.50;;;;;;9178386;19;20018;-71
2023/12/21 07:25:41;;;;;;;8.98;2.20;;;10.40;92.50;;;;;;9179852;19;20451;-73
2023/12/21 07:28:53;;;;;;;5.00;1.63;;;10.70;92.60;;;;;;9177272;19;20048;-73
2023/12/21 07:31:58;;;;;;;5.00;1.90;;;10.40;92.40;;;;;;9177991;19;20041;-71
2023/12/21 07:35:06;;;;;;;7.85;1.80;;;10.40;92.40;;;;;;9178640;19;20018;-72
2023/12/21 07:38:14;;;;;;;9.23;2.25;;;10.40;92.40;;;;;;9179144;19;20486;-71
2023/12/21 07:41:22;;;;;;;5.88;2.17;;;10.40;92.50;;;;;;9176308;19;20030;-71
2023/12/21 07:44:28;;;;;;;8.85;3.15;;;10.40;92.50;;;;;;9174452;19;20102;-70
2023/12/21 07:47:35;;;;;;;7.28;2.20;;;10.50;92.50;;;;;;9177949;19;20015;-70
2023/12/21 07:50:41;;;;;;;7.80;1.88;;;10.50;92.50;;;;;;9173606;19;20067;-71
2023/12/21 07:53:52;;;;;;;8.65;2.10;;;10.50;92.50;;;;;;9170947;19;20018;-72
2023/12/21 07:56:58;;;;;;;5.60;1.90;;;10.50;92.50;;;;;;9177715;19;20018;-71
2023/12/21 08:00:06;;;;;;;6.10;2.38;;;10.50;92.50;;;;;;9178622;19;20026;-72
2023/12/21 08:03:12;;;;;;;4.53;2.15;;;10.50;92.50;;;;;;9173591;19;20019;-72
2023/12/21 08:06:23;;;;;;;5.63;1.98;;;10.50;92.50;;;;;;9176206;19;20018;-75
2023/12/21 08:09:32;;;;;;;6.63;1.73;;;10.50;92.50;;;;;;9178004;19;20370;-75
2023/12/21 08:12:39;;;;;;;5.85;2.22;;;10.50;92.50;;;;;;9177974;19;20013;-74
2023/12/21 08:15:45;;;;;;;6.72;2.15;;;10.50;92.50;;;;;;9179272;19;20014;-75
2023/12/21 08:18:53;;;;;;;3.78;1.85;;;10.50;92.50;;;;;;9177289;19;20014;-76
2023/12/21 08:21:59;;;;;;;4.68;2.05;;;10.50;92.50;;;;;;9174837;19;20011;-75
2023/12/21 08:25:10;;;;;;;5.72;2.00;;;10.40;92.50;;;;;;9177839;19;20078;-75
2023/12/21 08:28:17;;;;;;;6.30;1.85;;;10.50;92.50;;;;;;9178413;19;20014;-75
2023/12/21 08:31:28;;;;;;;4.50;2.00;;;10.50;92.60;;;;;;9175239;19;20022;-76
2023/12/21 08:34:34;;;;;;;6.53;1.85;;;10.50;92.50;;;;;;9176854;19;20361;-76
2023/12/21 08:37:42;;;;;;;12.27;1.92;;;10.60;92.50;;;;;;9176711;19;20365;-74
2023/12/21 08:40:51;;;;;;;6.38;1.50;;;10.50;92.50;;;;;;9174521;19;20486;-75
2023/12/21 08:43:59;;;;;;;2.75;1.67;;;10.50;92.50;;;;;;9172172;19;20022;-71
2023/12/21 08:47:04;;;;;;;3.17;1.50;;;10.50;92.50;;;;;;9173998;19;20019;-71
2023/12/21 08:50:12;;;;;;;2.50;1.25;;;10.50;92.50;;;;;;9174923;19;20629;-72
2023/12/21 08:53:18;;;;;;;1.88;1.25;;;10.50;92.50;;;;;;9176215;19;20025;-70
2023/12/21 08:56:28;;;;;;;5.25;0.98;;;10.60;92.50;;;;;;9175288;19;20030;-71
2023/12/21 08:59:34;;;;;;;3.95;1.20;;;10.60;92.50;;;;;;9176651;19;20022;-71
2023/12/21 09:02:42;;;;;;;0.82;0.73;;;10.60;92.50;;;;;;9175415;19;20014;-71
2023/12/21 09:05:48;;;;;;;2.25;1.00;;;10.60;92.60;;;;;;9176089;19;20015;-71
2023/12/21 09:08:58;;;;;;;2.65;0.98;;;10.60;92.60;;;;;;9179002;19;20402;-71
2023/12/21 09:12:06;;;;;;;4.10;0.70;;;10.60;92.60;;;;;;9178435;19;20018;-72
2023/12/21 09:15:14;;;;;;;0.98;0.70;;;10.60;92.60;;;;;;9172991;19;20018;-70
2023/12/21 09:18:20;;;;;;;1.95;0.85;;;10.60;92.60;;;;;;9173457;19;20056;-71
2023/12/21 09:21:28;;;;;;;1.15;0.80;;;10.60;92.60;;;;;;9174528;19;20021;-71
2023/12/21 09:24:36;;;;;;;2.60;0.80;;;10.70;92.60;;;;;;9173445;19;20014;-69
2023/12/21 09:27:46;;;;;;;1.67;0.73;;;10.70;92.60;;;;;;9174993;19;20019;-69
2023/12/21 09:30:52;;;;;;;2.72;0.70;;;10.70;92.60;;;;;;9171103;19;20021;-69
2023/12/21 09:34:00;;;;;;;2.15;1.30;;;10.70;92.60;;;;;;9184792;19;20007;-70
2023/12/21 09:37:07;;;;;;;5.90;0.90;;;10.70;92.60;;;;;;9179306;19;20021;-72
2023/12/21 09:40:18;;;;;;;2.05;0.90;;;10.70;92.60;;;;;;9182390;19;20365;-70
2023/12/21 09:43:27;;;;;;;4.75;1.05;;;10.80;92.60;;;;;;9183162;19;20015;-69
2023/12/21 09:46:39;;;;;;;2.63;0.77;;;10.80;92.60;;;;;;9182762;19;20603;-69
2023/12/21 09:49:46;;;;;;;3.25;0.90;;;10.80;92.60;;;;;;9180036;19;20014;-68
2023/12/21 09:52:54;;;;;;;2.30;0.68;;;10.90;92.90;;;;;;9179407;19;20014;-69
2023/12/21 09:56:02;;;;;;;2.33;1.10;;;10.80;92.60;;;;;;9178533;19;20509;-69
2023/12/21 09:59:12;;;;;;;6.40;0.85;;;10.90;92.70;;;;;;9181292;19;20119;-69
2023/12/21 10:02:18;;;;;;;4.40;1.02;;;10.90;92.90;;;;;;9178254;19;20824;-69
2023/12/21 10:05:26;;;;;;;2.80;1.13;;;10.90;92.70;;;;;;9181595;19;20018;-69
2023/12/21 10:08:33;;;;;;;3.65;1.08;;;10.90;92.70;;;;;;9183027;19;20014;-69
2023/12/21 10:11:41;;;;;;;10.45;1.20;;;10.90;92.70;;;;;;9177215;19;20696;-69
2023/12/21 10:14:59;;;;;;;4.53;1.65;;;10.90;92.70;;;;;;9182407;19;20048;-69
2023/12/21 10:18:09;;;;;;;6.72;1.33;;;11.00;92.70;;;;;;9179528;19;20010;-69
2023/12/21 10:21:15;;;;;;;3.55;0.95;;;11.00;92.70;;;;;;9181068;19;20377;-68
2023/12/21 10:24:23;;;;;;;10.27;1.38;;;11.00;92.70;;;;;;9181872;19;20438;-69
2023/12/21 10:27:29;;;;;;;10.38;2.85;;;11.00;92.70;;;;;;9181531;19;20040;-69
2023/12/21 10:30:40;;;;;;;7.18;1.13;;;11.00;92.70;;;;;;9180226;19;20554;-68
2023/12/21 10:33:45;;;;;;;10.80;1.50;;;11.00;92.80;;;;;;9179114;19;20377;-69
2023/12/21 10:36:53;;;;;;;10.50;1.50;;;11.10;92.80;;;;;;9180079;19;20021;-68
2023/12/21 10:40:00;;;;;;;11.57;1.25;;;11.10;92.80;;;;;;9180203;19;20045;-69
2023/12/21 10:43:10;;;;;;;6.82;0.93;;;11.20;92.80;;;;;;9179112;19;20014;-69
2023/12/21 10:46:19;;;;;;;10.05;1.27;;;11.10;92.80;;;;;;9179289;19;20395;-69
2023/12/21 10:49:29;;;;;;;12.80;2.60;;;11.20;92.80;;;;;;9179426;19;20010;-70
2023/12/21 10:52:34;;;;;;;11.93;1.58;;;11.20;92.80;;;;;;9176364;19;20599;-70
2023/12/21 10:55:43;;;;;;;8.25;1.35;;;11.20;92.80;;;;;;9178234;19;20045;-70
2023/12/21 10:58:53;;;;;;;7.30;1.67;;;11.30;92.80;;;;;;9180600;19;20014;-73
2023/12/21 11:02:04;;;;;;;13.68;2.38;;;11.30;92.80;;;;;;9177129;19;20018;-74
2023/12/21 11:05:19;;;;;;;6.00;1.17;;;11.30;92.80;;;;;;9180683;19;20022;-74
2023/12/21 11:08:34;;;;;;;12.60;1.40;;;11.30;92.80;;;;;;9180041;19;20357;-75
2023/12/21 11:11:41;;;;;;;7.53;1.27;;;11.30;92.80;;;;;;9175359;19;20522;-75
2023/12/21 11:14:49;;;;;;;6.35;1.50;;;11.40;92.80;;;;;;9175475;19;20082;-72
2023/12/21 11:18:04;;;;;;;11.68;1.88;;;11.40;92.90;;;;;;9173453;19;20058;-73
2023/12/21 11:21:13;;;;;;;9.15;1.38;;;11.40;92.80;;;;;;9175824;19;20015;-73
2023/12/21 11:24:28;;;;;;;7.40;1.15;;;11.70;92.90;;;;;;9179464;19;20034;-73
2023/12/21 11:27:38;;;;;;;10.13;1.33;;;11.40;92.80;;;;;;9178770;19;20381;-73
2023/12/21 11:30:44;;;;;;;3.13;1.10;;;11.50;92.80;;;;;;9176513;19;20106;-72
2023/12/21 11:33:54;;;;;;;10.63;1.60;;;11.50;92.80;;;;;;9176919;19;20115;-71
2023/12/21 11:37:18;;;;;;;6.10;1.27;;;11.50;92.80;;;;;;9174120;19;20014;-71
2023/12/21 11:40:27;;;;;;;7.10;1.10;;;11.50;92.80;;;;;;9178241;19;20029;-71
2023/12/21 11:43:33;;;;;;;6.38;0.90;;;11.50;92.70;;;;;;9178210;19;20497;-72
2023/12/21 11:46:43;;;;;;;3.35;1.00;;;11.50;92.70;;;;;;9176068;19;20357;-71
2023/12/21 11:49:53;;;;;;;7.65;1.13;;;11.50;92.80;;;;;;9177397;19;20480;-73
2023/12/21 11:53:08;;;;;;;2.28;0.93;;;11.50;93.00;;;;;;9168375;19;20349;-73
2023/12/21 11:56:24;;;;;;;9.93;2.15;;;11.50;92.80;;;;;;9177534;19;20540;-73
2023/12/21 11:59:32;;;;;;;9.95;1.50;;;11.60;93.00;;;;;;9174763;19;20021;-73
2023/12/21 12:02:44;;;;;;;9.98;1.70;;;11.70;94.80;;;;;;9170840;19;20019;-74
2023/12/21 12:06:08;;;;;;;9.45;1.83;;;11.70;94.90;;;;;;9175355;19;20026;-73
2023/12/21 12:09:19;;;;;;;6.75;1.30;;;11.60;95.60;;;;;;9173579;19;20342;-74
2023/12/21 12:12:27;;;;;;;10.32;1.75;;;11.90;95.60;;;;;;9174320;19;20022;-73
2023/12/21 12:15:33;;;;;;;10.25;1.58;;;11.70;95.40;;;;;;9176885;19;20021;-72
2023/12/21 12:18:44;;;;;;;14.18;1.92;;;11.80;95.00;;;;;;9176832;19;20007;-71
2023/12/21 12:21:53;;;;;;;12.10;1.83;;;11.70;94.50;;;;;;9175999;19;20018;-72
2023/12/21 12:25:01;;;;;;;7.47;2.25;;;11.70;94.40;;;;;;9170301;19;20482;-72
2023/12/21 12:28:07;;;;;;;14.60;2.38;;;11.90;94.90;;;;;;9178284;19;20131;-73
2023/12/21 12:31:15;;;;;;;5.93;0.90;;;11.70;95.00;;;;;;9174654;19;20018;-73
2023/12/21 12:34:21;;;;;;;12.20;2.67;;;11.80;94.80;;;;;;9174300;19;20021;-73
2023/12/21 12:37:33;;;;;;;7.40;1.30;;;11.80;94.20;;;;;;9175948;19;20507;-72
2023/12/21 12:40:40;;;;;;;12.82;1.98;;;11.70;94.20;;;;;;9176923;19;20018;-72
2023/12/21 12:43:49;;;;;;;7.93;1.23;;;11.70;94.70;;;;;;9175282;19;20007;-74
2023/12/21 12:46:58;;;;;;;12.45;2.70;;;11.80;95.10;;;;;;9176243;19;20107;-76
2023/12/21 12:50:06;;;;;;;16.60;1.83;;;11.80;94.80;;;;;;9175047;19;20018;-75
2023/12/21 12:53:20;;;;;;;14.07;2.67;;;11.70;94.10;;;;;;9170792;19;20018;-75
2023/12/21 12:56:29;;;;;;;16.75;2.10;;;11.70;94.20;;;;;;9174095;19;20018;-77
2023/12/21 12:59:42;;;;;;;9.48;1.20;;;11.80;95.10;;;;;;9172930;19;20090;-74
2023/12/21 13:02:50;;;;;;;17.25;2.10;;;11.60;94.60;;;;;;9169899;19;20014;-74
2023/12/21 13:05:57;;;;;;;13.60;3.72;;;11.70;94.30;;;;;;9174210;19;20564;-75
2023/12/21 13:09:20;;;;;;;16.63;2.45;;;11.60;94.40;;;;;;9185397;19;20030;-75
2023/12/21 13:12:26;;;;;;;22.15;2.20;;;11.50;94.10;;;;;;9182561;19;20022;-75
2023/12/21 13:15:34;;;;;;;22.52;2.83;;;11.50;94.90;;;;;;9182857;19;20019;-75
2023/12/21 13:18:39;;;;;;;19.20;2.38;;;11.50;94.70;;;;;;9184562;19;20044;-74
2023/12/21 13:21:48;;;;;;;23.85;2.42;;;11.50;95.30;;;;;;9180615;19;20018;-74
2023/12/21 13:24:57;;;;;;;24.33;4.03;;;11.60;96.40;;;;;;9184860;19;20502;-75
2023/12/21 13:28:05;;;;;;;9.25;2.28;;;11.60;97.20;;;;;;9184422;19;20018;-74
2023/12/21 13:31:22;;;;;;;17.90;2.20;;;11.50;95.10;;;;;;9183566;19;20093;-76
2023/12/21 13:34:30;;;;;;;13.73;2.17;;;11.60;95.50;;;;;;9183698;19;20010;-75
2023/12/21 13:37:37;;;;;;;11.20;2.80;;;11.60;96.00;;;;;;9183890;19;20114;-77
2023/12/21 13:40:47;;;;;;;14.93;2.25;;;11.50;95.10;;;;;;9184365;19;20015;-75
2023/12/21 13:43:53;;;;;;;18.00;2.78;;;11.60;95.40;;;;;;9182802;19;20017;-75
2023/12/21 13:47:01;;;;;;;14.45;2.88;;;11.50;97.10;;;;;;9183949;19;20486;-75
2023/12/21 13:50:08;;;;;;;16.42;2.00;;;11.70;97.90;;;;;;9182755;19;20479;-75
2023/12/21 13:53:16;;;;;;;16.95;2.53;;;11.50;96.90;;;;;;9181934;19;20018;-75
2023/12/21 13:56:25;;;;;;;23.08;2.90;;;12.40;99.90;;;;;;9181553;19;20015;-74
2023/12/21 13:59:35;;;;;;;23.95;2.90;;;11.50;99.00;;;;;;9183695;19;20025;-78
2023/12/21 14:02:43;;;;;;;12.95;3.05;;;11.30;92.00;;;;;;9179387;19;20021;-75
2023/12/21 14:05:50;;;;;;;21.88;3.10;;;11.30;92.20;;;;;;9180283;19;20022;-75
2023/12/21 14:08:56;;;;;;;15.55;3.13;;;11.20;92.20;;;;;;9180708;19;20507;-74
2023/12/21 14:12:07;;;;;;;19.52;3.95;;;11.20;92.10;;;;;;9178335;19;20014;-75
2023/12/21 14:15:13;;;;;;;14.15;2.33;;;11.20;92.10;;;;;;9183457;19;20045;-75
2023/12/21 14:18:21;;;;;;;13.70;2.70;;;11.20;92.10;;;;;;9177842;19;20018;-74
2023/12/21 14:21:26;;;;;;;21.58;2.88;;;11.20;92.10;;;;;;9179570;19;20019;-74
2023/12/21 14:24:34;;;;;;;20.80;3.60;;;11.20;92.10;;;;;;9181416;19;20010;-74
2023/12/21 14:27:42;;;;;;;14.35;3.05;;;11.10;92.00;;;;;;9182335;19;20010;-73
2023/12/21 14:30:50;;;;;;;26.55;4.10;;;11.10;92.00;;;;;;9179757;19;20487;-74
2023/12/21 14:33:56;;;;;;;20.60;2.50;;;11.00;92.00;;;;;;9177688;19;20010;-75
2023/12/21 14:37:04;;;;;;;18.67;3.40;;;11.10;92.00;;;;;;9181024;19;20011;-74
2023/12/21 14:40:11;;;;;;;16.95;3.25;;;11.10;92.00;;;;;;9182172;19;20097;-74
2023/12/21 14:43:22;;;;;;;18.92;2.90;;;11.10;92.00;;;;;;9179463;19;20022;-74
2023/12/21 14:46:28;;;;;;;15.43;3.28;;;11.10;91.90;;;;;;9179920;19;20051;-75
2023/12/21 14:49:47;;;;;;;22.48;3.00;;;11.10;91.90;;;;;;9180453;19;21445;-74
2023/12/21 14:52:53;;;;;;;19.65;3.78;;;11.00;91.80;;;;;;9174866;19;20106;-75
2023/12/21 14:56:01;;;;;;;14.55;2.58;;;11.00;91.80;;;;;;9175794;19;20022;-75
2023/12/21 14:59:14;;;;;;;19.02;3.17;;;11.00;91.70;;;;;;9179917;19;20018;-76
2023/12/21 15:02:27;;;;;;;8.30;1.60;;;10.90;91.70;;;;;;9172739;19;20011;-76
2023/12/21 15:05:36;;;;;;;17.73;2.38;;;10.90;91.50;;;;;;9178021;19;20014;-73
2023/12/21 15:08:46;;;;;;;15.55;2.67;;;10.70;91.40;;;;;;9178067;19;20373;-75
2023/12/21 15:11:54;;;;;;;19.45;2.58;;;10.60;91.50;;;;;;9176251;19;20480;-75
2023/12/21 15:15:05;;;;;;;19.33;3.22;;;10.50;91.50;;;;;;9170537;19;20011;-76
2023/12/21 15:18:10;;;;;;;21.88;3.47;;;10.30;91.40;;;;;;9177462;19;20503;-74
2023/12/21 15:21:21;;;;;;;20.88;2.92;;;10.20;91.60;;;;;;9176546;19;20022;-74
2023/12/21 15:24:26;;;;;;;17.45;3.10;;;10.20;91.60;;;;;;9175193;19;20052;-76
2023/12/21 15:27:34;;;;;;;16.77;2.75;;;10.30;91.70;;;;;;9178289;19;20021;-75
2023/12/21 15:30:42;;;;;;;17.58;3.47;;;10.20;91.70;;;;;;9175153;19;20025;-75
2023/12/21 15:33:50;;;;;;;28.40;3.40;;;10.20;91.60;;;;;;9176322;19;20405;-76
2023/12/21 15:36:55;;;;;;;28.17;4.85;;;10.10;91.70;;;;;;9176286;19;20014;-75
2023/12/21 15:40:03;;;;;;;27.20;3.75;;;10.20;92.00;;;;;;9178949;19;20037;-77
2023/12/21 15:43:09;;;;;;;10.80;2.45;;;10.10;92.20;;;;;;9179166;19;20018;-76
2023/12/21 15:46:21;;;;;;;12.10;1.40;;;10.10;91.90;;;;;;9177514;19;20014;-76
2023/12/21 15:49:27;;;;;;;6.22;0.95;;;10.00;91.60;;;;;;9176426;19;20014;-76
2023/12/21 15:52:35;;;;;;;5.18;1.02;;;10.00;91.60;;;;;;9178022;19;21166;-73
2023/12/21 15:55:40;;;;;;;3.28;1.25;;;9.80;91.70;;;;;;9177210;19;20018;-74
2023/12/21 15:58:48;;;;;;;8.20;1.30;;;9.60;91.50;;;;;;9177088;19;20764;-74
2023/12/21 16:01:59;;;;;;;6.13;0.88;;;9.40;91.30;;;;;;9178211;19;20098;-74
2023/12/21 16:05:09;;;;;;;7.43;1.35;;;9.30;91.60;;;;;;9177917;19;20021;-74
2023/12/21 16:08:15;;;;;;;9.88;1.73;;;9.10;91.70;;;;;;9176917;19;20014;-73
2023/12/21 16:11:23;;;;;;;7.10;1.42;;;9.00;92.10;;;;;;9172229;19;20018;-74